sensor_id;sensor_type;location;lat;lon;timestamp;pressure;altitude;pressure_sealevel;temperature;humidity
81812;BME280;71243;51.848;5.768;2024-01-30T00:01:26;102705.66;;;9.07;88.24
81812;BME280;71243;51.848;5.768;2024-01-30T00:03:51;102703.97;;;9.20;87.44
81812;BME280;71243;51.848;5.768;2024-01-30T00:06:20;102704.34;;;9.28;87.11
81812;BME280;71243;51.848;5.768;2024-01-30T00:08:45;102711.31;;;9.29;86.96
81812;BME280;71243;51.848;5.768;2024-01-30T00:11:10;102706.69;;;9.19;87.27
81812;BME280;71243;51.848;5.768;2024-01-30T00:13:35;102714.31;;;9.09;87.34
81812;BME280;71243;51.848;5.768;2024-01-30T00:16:01;102706.69;;;9.05;87.59
81812;BME280;71243;51.848;5.768;2024-01-30T00:18:26;102705.66;;;9.07;87.48
81812;BME280;71243;51.848;5.768;2024-01-30T00:20:51;102703.75;;;9.09;87.19
81812;BME280;71243;51.848;5.768;2024-01-30T00:23:19;102710.09;;;9.07;87.15
81812;BME280;71243;51.848;5.768;2024-01-30T00:25:44;102705.47;;;8.96;87.67
81812;BME280;71243;51.848;5.768;2024-01-30T00:28:10;102696.88;;;8.93;88.06
81812;BME280;71243;51.848;5.768;2024-01-30T00:30:35;102702.81;;;8.96;87.57
81812;BME280;71243;51.848;5.768;2024-01-30T00:33:00;102705.47;;;8.96;87.80
81812;BME280;71243;51.848;5.768;2024-01-30T00:35:26;102698.84;;;8.89;87.82
81812;BME280;71243;51.848;5.768;2024-01-30T00:37:51;102693.59;;;8.89;88.02
81812;BME280;71243;51.848;5.768;2024-01-30T00:40:16;102694.06;;;8.96;87.40
81812;BME280;71243;51.848;5.768;2024-01-30T00:42:42;102689.44;;;8.85;87.77
81812;BME280;71243;51.848;5.768;2024-01-30T00:45:14;102691.31;;;8.83;88.05
81812;BME280;71243;51.848;5.768;2024-01-30T00:47:40;102686.59;;;8.74;88.46
81812;BME280;71243;51.848;5.768;2024-01-30T00:50:05;102690.75;;;8.78;88.34
81812;BME280;71243;51.848;5.768;2024-01-30T00:52:31;102687.75;;;8.84;87.94
81812;BME280;71243;51.848;5.768;2024-01-30T00:54:56;102693.03;;;8.84;87.64
81812;BME280;71243;51.848;5.768;2024-01-30T00:57:21;102690.28;;;8.85;87.75
81812;BME280;71243;51.848;5.768;2024-01-30T00:59:46;102692.06;;;8.85;87.27
81812;BME280;71243;51.848;5.768;2024-01-30T01:02:12;102695.53;;;8.71;88.09
81812;BME280;71243;51.848;5.768;2024-01-30T01:04:37;102692.34;;;8.80;87.86
81812;BME280;71243;51.848;5.768;2024-01-30T01:07:02;102692.63;;;8.76;87.94
81812;BME280;71243;51.848;5.768;2024-01-30T01:09:28;102686.78;;;8.71;87.79
81812;BME280;71243;51.848;5.768;2024-01-30T01:11:53;102679.63;;;8.73;87.97
81812;BME280;71243;51.848;5.768;2024-01-30T01:14:18;102685.38;;;8.79;87.79
81812;BME280;71243;51.848;5.768;2024-01-30T01:16:44;102676.81;;;8.76;87.35
81812;BME280;71243;51.848;5.768;2024-01-30T01:19:09;102670.19;;;8.69;87.90
81812;BME280;71243;51.848;5.768;2024-01-30T01:21:34;102675.41;;;8.84;87.39
81812;BME280;71243;51.848;5.768;2024-01-30T01:23:59;102676.91;;;8.88;86.84
81812;BME280;71243;51.848;5.768;2024-01-30T01:26:25;102669.75;;;8.76;87.43
81812;BME280;71243;51.848;5.768;2024-01-30T01:28:50;102670.50;;;8.78;87.25
81812;BME280;71243;51.848;5.768;2024-01-30T01:31:15;102677.47;;;8.79;87.21
81812;BME280;71243;51.848;5.768;2024-01-30T01:33:40;102670.22;;;8.83;86.94
81812;BME280;71243;51.848;5.768;2024-01-30T01:36:06;102674.81;;;8.79;86.93
81812;BME280;71243;51.848;5.768;2024-01-30T01:38:31;102663.41;;;8.65;87.49
81812;BME280;71243;51.848;5.768;2024-01-30T01:40:56;102666.56;;;8.71;87.41
81812;BME280;71243;51.848;5.768;2024-01-30T01:43:22;102653.72;;;8.65;87.45
81812;BME280;71243;51.848;5.768;2024-01-30T01:45:47;102660.78;;;8.65;87.58
81812;BME280;71243;51.848;5.768;2024-01-30T01:48:13;102659.94;;;8.64;87.48
81812;BME280;71243;51.848;5.768;2024-01-30T01:50:38;102662.50;;;8.66;87.47
81812;BME280;71243;51.848;5.768;2024-01-30T01:53:05;102659.75;;;8.67;87.28
81812;BME280;71243;51.848;5.768;2024-01-30T01:55:31;102653.38;;;8.71;87.14
81812;BME280;71243;51.848;5.768;2024-01-30T01:57:57;102666.66;;;8.70;86.92
81812;BME280;71243;51.848;5.768;2024-01-30T02:00:25;102654.50;;;8.67;87.03
81812;BME280;71243;51.848;5.768;2024-01-30T02:02:51;102657.88;;;8.69;86.95
81812;BME280;71243;51.848;5.768;2024-01-30T02:05:18;102650.25;;;8.79;86.60
81812;BME280;71243;51.848;5.768;2024-01-30T02:07:43;102653.09;;;8.76;86.47
81812;BME280;71243;51.848;5.768;2024-01-30T02:10:09;102647.91;;;8.74;86.58
81812;BME280;71243;51.848;5.768;2024-01-30T02:12:34;102653.94;;;8.76;86.58
81812;BME280;71243;51.848;5.768;2024-01-30T02:15:00;102668.63;;;8.80;86.09
81812;BME280;71243;51.848;5.768;2024-01-30T02:17:25;102657.69;;;8.86;85.74
81812;BME280;71243;51.848;5.768;2024-01-30T02:19:50;102655.47;;;8.80;86.04
81812;BME280;71243;51.848;5.768;2024-01-30T02:22:16;102657.25;;;8.94;85.60
81812;BME280;71243;51.848;5.768;2024-01-30T02:24:41;102655.38;;;8.82;86.01
81812;BME280;71243;51.848;5.768;2024-01-30T02:27:06;102654.41;;;8.83;85.77
81812;BME280;71243;51.848;5.768;2024-01-30T02:29:32;102647.25;;;8.85;85.62
81812;BME280;71243;51.848;5.768;2024-01-30T02:31:57;102640.38;;;8.82;85.61
81812;BME280;71243;51.848;5.768;2024-01-30T02:34:23;102638.50;;;8.84;85.73
81812;BME280;71243;51.848;5.768;2024-01-30T02:36:48;102637.94;;;8.94;85.20
81812;BME280;71243;51.848;5.768;2024-01-30T02:39:14;102631.66;;;8.96;85.16
81812;BME280;71243;51.848;5.768;2024-01-30T02:41:39;102633.31;;;8.83;85.61
81812;BME280;71243;51.848;5.768;2024-01-30T02:44:04;102636.16;;;8.94;85.23
81812;BME280;71243;51.848;5.768;2024-01-30T02:46:30;102634.53;;;9.06;84.53
81812;BME280;71243;51.848;5.768;2024-01-30T02:48:55;102634.28;;;8.82;85.30
81812;BME280;71243;51.848;5.768;2024-01-30T02:51:20;102636.91;;;8.82;85.55
81812;BME280;71243;51.848;5.768;2024-01-30T02:53:46;102635.50;;;8.91;84.99
81812;BME280;71243;51.848;5.768;2024-01-30T02:56:11;102631.91;;;8.92;84.96
81812;BME280;71243;51.848;5.768;2024-01-30T02:58:36;102635.03;;;8.98;84.65
81812;BME280;71243;51.848;5.768;2024-01-30T03:01:02;102627.41;;;8.94;84.67
81812;BME280;71243;51.848;5.768;2024-01-30T03:03:28;102628.91;;;8.98;84.50
81812;BME280;71243;51.848;5.768;2024-01-30T03:05:53;102630.22;;;8.91;84.80
81812;BME280;71243;51.848;5.768;2024-01-30T03:08:18;102622.69;;;8.84;85.07
81812;BME280;71243;51.848;5.768;2024-01-30T03:10:43;102614.41;;;8.76;85.56
81812;BME280;71243;51.848;5.768;2024-01-30T03:13:08;102613.00;;;8.71;85.68
81812;BME280;71243;51.848;5.768;2024-01-30T03:15:34;102607.53;;;8.74;85.50
81812;BME280;71243;51.848;5.768;2024-01-30T03:17:59;102615.28;;;8.77;85.54
81812;BME280;71243;51.848;5.768;2024-01-30T03:20:24;102608.56;;;8.71;85.75
81812;BME280;71243;51.848;5.768;2024-01-30T03:22:50;102607.34;;;8.63;86.09
81812;BME280;71243;51.848;5.768;2024-01-30T03:25:15;102595.09;;;8.62;86.22
81812;BME280;71243;51.848;5.768;2024-01-30T03:27:43;102606.41;;;8.64;86.05
81812;BME280;71243;51.848;5.768;2024-01-30T03:30:11;102599.47;;;8.77;85.48
81812;BME280;71243;51.848;5.768;2024-01-30T03:32:37;102605.00;;;8.72;85.46
81812;BME280;71243;51.848;5.768;2024-01-30T03:35:02;102602.63;;;8.54;86.40
81812;BME280;71243;51.848;5.768;2024-01-30T03:37:27;102593.00;;;8.53;86.52
81812;BME280;71243;51.848;5.768;2024-01-30T03:39:52;102588.59;;;8.53;86.46
81812;BME280;71243;51.848;5.768;2024-01-30T03:42:18;102585.00;;;8.54;86.42
81812;BME280;71243;51.848;5.768;2024-01-30T03:44:43;102588.03;;;8.48;86.59
81812;BME280;71243;51.848;5.768;2024-01-30T03:47:08;102588.22;;;8.45;86.68
81812;BME280;71243;51.848;5.768;2024-01-30T03:49:34;102580.34;;;8.45;86.72
81812;BME280;71243;51.848;5.768;2024-01-30T03:51:59;102578.81;;;8.41;86.95
81812;BME280;71243;51.848;5.768;2024-01-30T03:54:27;102575.78;;;8.47;86.89
81812;BME280;71243;51.848;5.768;2024-01-30T03:56:52;102585.50;;;8.47;86.79
81812;BME280;71243;51.848;5.768;2024-01-30T03:59:18;102582.13;;;8.59;86.17
81812;BME280;71243;51.848;5.768;2024-01-30T04:01:46;102593.88;;;8.67;85.91
81812;BME280;71243;51.848;5.768;2024-01-30T04:04:11;102589.63;;;8.65;86.47
81812;BME280;71243;51.848;5.768;2024-01-30T04:06:36;102590.28;;;8.68;85.92
81812;BME280;71243;51.848;5.768;2024-01-30T04:09:02;102601.34;;;8.75;85.55
81812;BME280;71243;51.848;5.768;2024-01-30T04:11:30;102597.75;;;8.76;85.50
81812;BME280;71243;51.848;5.768;2024-01-30T04:13:55;102604.13;;;8.72;85.63
81812;BME280;71243;51.848;5.768;2024-01-30T04:16:21;102605.19;;;8.69;85.63
81812;BME280;71243;51.848;5.768;2024-01-30T04:18:46;102602.34;;;8.72;85.56
81812;BME280;71243;51.848;5.768;2024-01-30T04:21:12;102596.72;;;8.64;85.88
81812;BME280;71243;51.848;5.768;2024-01-30T04:23:37;102596.53;;;8.67;85.73
81812;BME280;71243;51.848;5.768;2024-01-30T04:26:02;102593.41;;;8.61;86.05
81812;BME280;71243;51.848;5.768;2024-01-30T04:28:28;102594.06;;;8.64;85.93
81812;BME280;71243;51.848;5.768;2024-01-30T04:30:53;102585.41;;;8.62;86.04
81812;BME280;71243;51.848;5.768;2024-01-30T04:33:18;102589.84;;;8.62;86.17
81812;BME280;71243;51.848;5.768;2024-01-30T04:35:46;102585.66;;;8.44;87.17
81812;BME280;71243;51.848;5.768;2024-01-30T04:38:11;102583.03;;;8.44;87.29
81812;BME280;71243;51.848;5.768;2024-01-30T04:40:37;102581.00;;;8.49;87.22
81812;BME280;71243;51.848;5.768;2024-01-30T04:43:02;102585.13;;;8.53;87.07
81812;BME280;71243;51.848;5.768;2024-01-30T04:45:27;102577.31;;;8.51;87.14
81812;BME280;71243;51.848;5.768;2024-01-30T04:47:53;102580.25;;;8.61;86.79
81812;BME280;71243;51.848;5.768;2024-01-30T04:50:18;102575.34;;;8.55;87.13
81812;BME280;71243;51.848;5.768;2024-01-30T04:52:43;102575.75;;;8.63;86.71
81812;BME280;71243;51.848;5.768;2024-01-30T04:55:08;102568.56;;;8.65;86.66
81812;BME280;71243;51.848;5.768;2024-01-30T04:57:34;102568.38;;;8.54;87.20
81812;BME280;71243;51.848;5.768;2024-01-30T04:59:59;102571.28;;;8.63;87.22
81812;BME280;71243;51.848;5.768;2024-01-30T05:02:24;102572.16;;;8.64;87.01
81812;BME280;71243;51.848;5.768;2024-01-30T05:04:50;102558.31;;;8.60;87.38
81812;BME280;71243;51.848;5.768;2024-01-30T05:07:15;102572.03;;;8.65;87.26
81812;BME280;71243;51.848;5.768;2024-01-30T05:09:40;102561.50;;;8.65;87.49
81812;BME280;71243;51.848;5.768;2024-01-30T05:12:07;102567.72;;;8.78;86.58
81812;BME280;71243;51.848;5.768;2024-01-30T05:14:32;102568.28;;;8.83;86.58
81812;BME280;71243;51.848;5.768;2024-01-30T05:16:57;102566.31;;;8.87;86.25
81812;BME280;71243;51.848;5.768;2024-01-30T05:19:23;102567.72;;;8.93;86.15
81812;BME280;71243;51.848;5.768;2024-01-30T05:21:51;102571.78;;;8.98;85.97
81812;BME280;71243;51.848;5.768;2024-01-30T05:24:16;102572.78;;;8.96;86.04
81812;BME280;71243;51.848;5.768;2024-01-30T05:26:42;102573.91;;;8.92;86.27
81812;BME280;71243;51.848;5.768;2024-01-30T05:29:07;102579.69;;;8.98;85.88
81812;BME280;71243;51.848;5.768;2024-01-30T05:31:33;102576.94;;;9.00;85.98
81812;BME280;71243;51.848;5.768;2024-01-30T05:33:59;102568.00;;;8.88;86.52
81812;BME280;71243;51.848;5.768;2024-01-30T05:36:24;102567.53;;;8.81;87.07
81812;BME280;71243;51.848;5.768;2024-01-30T05:38:49;102577.13;;;8.97;86.42
81812;BME280;71243;51.848;5.768;2024-01-30T05:41:18;102561.03;;;8.87;86.71
81812;BME280;71243;51.848;5.768;2024-01-30T05:43:43;102566.97;;;8.91;86.78
81812;BME280;71243;51.848;5.768;2024-01-30T05:46:08;102562.81;;;8.86;87.01
81812;BME280;71243;51.848;5.768;2024-01-30T05:48:34;102568.75;;;8.90;87.09
81812;BME280;71243;51.848;5.768;2024-01-30T05:50:59;102569.72;;;8.89;86.90
81812;BME280;71243;51.848;5.768;2024-01-30T05:53:24;102564.53;;;8.88;87.26
81812;BME280;71243;51.848;5.768;2024-01-30T05:55:49;102566.00;;;8.92;87.45
81812;BME280;71243;51.848;5.768;2024-01-30T05:58:18;102568.84;;;9.03;86.80
81812;BME280;71243;51.848;5.768;2024-01-30T06:00:43;102572.69;;;9.11;86.49
81812;BME280;71243;51.848;5.768;2024-01-30T06:03:08;102570.78;;;9.13;86.51
81812;BME280;71243;51.848;5.768;2024-01-30T06:05:34;102576.81;;;9.15;86.41
81812;BME280;71243;51.848;5.768;2024-01-30T06:07:59;102574.19;;;9.15;86.52
81812;BME280;71243;51.848;5.768;2024-01-30T06:10:27;102571.66;;;9.14;86.60
81812;BME280;71243;51.848;5.768;2024-01-30T06:12:53;102564.00;;;9.09;86.90
81812;BME280;71243;51.848;5.768;2024-01-30T06:15:18;102567.59;;;9.08;87.09
81812;BME280;71243;51.848;5.768;2024-01-30T06:17:46;102571.25;;;9.20;86.77
81812;BME280;71243;51.848;5.768;2024-01-30T06:20:11;102563.44;;;9.18;86.68
81812;BME280;71243;51.848;5.768;2024-01-30T06:22:37;102567.47;;;9.24;86.63
81812;BME280;71243;51.848;5.768;2024-01-30T06:25:02;102571.19;;;9.21;86.76
81812;BME280;71243;51.848;5.768;2024-01-30T06:27:27;102575.81;;;9.18;87.21
81812;BME280;71243;51.848;5.768;2024-01-30T06:29:53;102577.66;;;9.30;86.72
81812;BME280;71243;51.848;5.768;2024-01-30T06:32:18;102584.50;;;9.32;86.37
81812;BME280;71243;51.848;5.768;2024-01-30T06:34:43;102585.25;;;9.34;86.55
81812;BME280;71243;51.848;5.768;2024-01-30T06:37:08;102581.50;;;9.38;86.45
81812;BME280;71243;51.848;5.768;2024-01-30T06:39:34;102582.06;;;9.29;86.95
81812;BME280;71243;51.848;5.768;2024-01-30T06:41:59;102588.00;;;9.33;86.68
81812;BME280;71243;51.848;5.768;2024-01-30T06:44:24;102581.03;;;9.32;87.00
81812;BME280;71243;51.848;5.768;2024-01-30T06:46:49;102575.94;;;9.29;87.21
81812;BME280;71243;51.848;5.768;2024-01-30T06:49:15;102573.28;;;9.43;86.47
81812;BME280;71243;51.848;5.768;2024-01-30T06:51:40;102577.91;;;9.39;86.79
81812;BME280;71243;51.848;5.768;2024-01-30T06:54:05;102579.06;;;9.35;87.15
81812;BME280;71243;51.848;5.768;2024-01-30T06:56:30;102580.44;;;9.41;86.95
81812;BME280;71243;51.848;5.768;2024-01-30T06:58:58;102589.00;;;9.44;86.72
81812;BME280;71243;51.848;5.768;2024-01-30T07:01:30;102587.97;;;9.47;86.86
81812;BME280;71243;51.848;5.768;2024-01-30T07:03:55;102586.94;;;9.49;86.67
81812;BME280;71243;51.848;5.768;2024-01-30T07:06:20;102593.88;;;9.50;86.65
81812;BME280;71243;51.848;5.768;2024-01-30T07:08:46;102598.03;;;9.54;86.59
81812;BME280;71243;51.848;5.768;2024-01-30T07:11:18;102595.66;;;9.50;86.55
81812;BME280;71243;51.848;5.768;2024-01-30T07:13:44;102594.28;;;9.44;86.89
81812;BME280;71243;51.848;5.768;2024-01-30T07:16:09;102598.31;;;9.50;87.07
81812;BME280;71243;51.848;5.768;2024-01-30T07:18:34;102595.34;;;9.42;87.31
81812;BME280;71243;51.848;5.768;2024-01-30T07:20:59;102606.13;;;9.51;86.63
81812;BME280;71243;51.848;5.768;2024-01-30T07:23:25;102606.53;;;9.45;87.33
81812;BME280;71243;51.848;5.768;2024-01-30T07:25:50;102603.34;;;9.40;87.44
81812;BME280;71243;51.848;5.768;2024-01-30T07:28:15;102619.31;;;9.51;87.19
81812;BME280;71243;51.848;5.768;2024-01-30T07:30:40;102619.63;;;9.47;87.40
81812;BME280;71243;51.848;5.768;2024-01-30T07:33:06;102616.88;;;9.48;87.42
81812;BME280;71243;51.848;5.768;2024-01-30T07:35:31;102617.75;;;9.49;87.24
81812;BME280;71243;51.848;5.768;2024-01-30T07:37:56;102617.75;;;9.49;87.33
81812;BME280;71243;51.848;5.768;2024-01-30T07:40:22;102616.88;;;9.48;87.46
81812;BME280;71243;51.848;5.768;2024-01-30T07:42:50;102615.97;;;9.49;87.51
81812;BME280;71243;51.848;5.768;2024-01-30T07:45:18;102615.09;;;9.49;87.63
81812;BME280;71243;51.848;5.768;2024-01-30T07:47:43;102624.13;;;9.59;87.24
81812;BME280;71243;51.848;5.768;2024-01-30T07:50:09;102623.91;;;9.62;87.29
81812;BME280;71243;51.848;5.768;2024-01-30T07:52:37;102626.47;;;9.63;87.30
81812;BME280;71243;51.848;5.768;2024-01-30T07:55:02;102636.06;;;9.64;87.32
81812;BME280;71243;51.848;5.768;2024-01-30T07:57:28;102645.53;;;9.54;87.82
81812;BME280;71243;51.848;5.768;2024-01-30T07:59:53;102639.19;;;9.57;87.69
81812;BME280;71243;51.848;5.768;2024-01-30T08:02:18;102642.31;;;9.63;87.65
81812;BME280;71243;51.848;5.768;2024-01-30T08:04:44;102642.31;;;9.63;87.73
81812;BME280;71243;51.848;5.768;2024-01-30T08:07:09;102630.78;;;9.64;87.63
81812;BME280;71243;51.848;5.768;2024-01-30T08:09:34;102646.31;;;9.69;87.54
81812;BME280;71243;51.848;5.768;2024-01-30T08:11:59;102640.75;;;9.73;87.52
81812;BME280;71243;51.848;5.768;2024-01-30T08:14:24;102641.50;;;9.75;87.42
81812;BME280;71243;51.848;5.768;2024-01-30T08:16:50;102643.41;;;9.73;87.73
81812;BME280;71243;51.848;5.768;2024-01-30T08:19:15;102653.75;;;9.76;87.74
81812;BME280;71243;51.848;5.768;2024-01-30T08:21:40;102655.53;;;9.76;87.81
81812;BME280;71243;51.848;5.768;2024-01-30T08:24:06;102650.25;;;9.76;87.92
81812;BME280;71243;51.848;5.768;2024-01-30T08:26:32;102654.84;;;9.86;87.63
81812;BME280;71243;51.848;5.768;2024-01-30T08:28:58;102659.69;;;9.80;87.81
81812;BME280;71243;51.848;5.768;2024-01-30T08:31:23;102657.78;;;9.82;87.87
81812;BME280;71243;51.848;5.768;2024-01-30T08:33:48;102652.50;;;9.82;87.90
81812;BME280;71243;51.848;5.768;2024-01-30T08:36:14;102653.06;;;9.87;87.96
81812;BME280;71243;51.848;5.768;2024-01-30T08:38:39;102652.13;;;9.88;87.75
81812;BME280;71243;51.848;5.768;2024-01-30T08:41:05;102655.31;;;9.93;87.81
81812;BME280;71243;51.848;5.768;2024-01-30T08:43:30;102647.41;;;9.93;87.64
81812;BME280;71243;51.848;5.768;2024-01-30T08:45:56;102652.38;;;9.97;87.45
81812;BME280;71243;51.848;5.768;2024-01-30T08:48:23;102642.41;;;9.88;87.78
81812;BME280;71243;51.848;5.768;2024-01-30T08:50:49;102647.84;;;9.99;87.70
81812;BME280;71243;51.848;5.768;2024-01-30T08:53:14;102641.06;;;9.95;87.79
81812;BME280;71243;51.848;5.768;2024-01-30T08:55:39;102640.75;;;10.00;87.66
81812;BME280;71243;51.848;5.768;2024-01-30T08:58:07;102646.38;;;10.08;87.48
81812;BME280;71243;51.848;5.768;2024-01-30T09:00:33;102645.91;;;10.16;87.25
81812;BME280;71243;51.848;5.768;2024-01-30T09:02:58;102645.38;;;10.11;87.55
81812;BME280;71243;51.848;5.768;2024-01-30T09:05:23;102648.56;;;10.16;87.41
81812;BME280;71243;51.848;5.768;2024-01-30T09:07:49;102652.97;;;10.15;87.60
81812;BME280;71243;51.848;5.768;2024-01-30T09:10:14;102649.94;;;10.21;87.66
81812;BME280;71243;51.848;5.768;2024-01-30T09:12:39;102654.06;;;10.25;87.46
81812;BME280;71243;51.848;5.768;2024-01-30T09:15:05;102655.97;;;10.23;87.62
81812;BME280;71243;51.848;5.768;2024-01-30T09:17:30;102655.88;;;10.25;87.76
81812;BME280;71243;51.848;5.768;2024-01-30T09:19:55;102652.09;;;10.29;87.69
81812;BME280;71243;51.848;5.768;2024-01-30T09:22:24;102656.63;;;10.27;88.04
81812;BME280;71243;51.848;5.768;2024-01-30T09:24:49;102654.94;;;10.38;87.41
81812;BME280;71243;51.848;5.768;2024-01-30T09:27:15;102657.38;;;10.41;87.47
81812;BME280;71243;51.848;5.768;2024-01-30T09:29:40;102662.66;;;10.41;87.65
81812;BME280;71243;51.848;5.768;2024-01-30T09:32:06;102665.13;;;10.57;87.19
81812;BME280;71243;51.848;5.768;2024-01-30T09:34:34;102660.25;;;10.51;87.14
81812;BME280;71243;51.848;5.768;2024-01-30T09:36:59;102665.44;;;10.52;87.26
81812;BME280;71243;51.848;5.768;2024-01-30T09:39:25;102674.84;;;10.56;87.27
81812;BME280;71243;51.848;5.768;2024-01-30T09:44:46;102672.75;;;10.61;87.34
81812;BME280;71243;51.848;5.768;2024-01-30T09:47:12;102672.34;;;10.67;87.15
81812;BME280;71243;51.848;5.768;2024-01-30T09:49:38;102676.78;;;10.67;87.21
81812;BME280;71243;51.848;5.768;2024-01-30T09:52:05;102674.66;;;10.72;87.32
81812;BME280;71243;51.848;5.768;2024-01-30T09:54:30;102666.41;;;10.76;87.15
81812;BME280;71243;51.848;5.768;2024-01-30T09:56:56;102660.81;;;10.81;87.06
81812;BME280;71243;51.848;5.768;2024-01-30T09:59:21;102662.94;;;10.88;86.95
81812;BME280;71243;51.848;5.768;2024-01-30T10:01:47;102666.63;;;10.86;87.14
81812;BME280;71243;51.848;5.768;2024-01-30T10:04:12;102665.16;;;10.94;87.27
81812;BME280;71243;51.848;5.768;2024-01-30T10:06:38;102677.31;;;10.97;87.54
81812;BME280;71243;51.848;5.768;2024-01-30T10:09:04;102679.53;;;11.03;87.46
81812;BME280;71243;51.848;5.768;2024-01-30T10:11:30;102669.59;;;11.06;87.43
81812;BME280;71243;51.848;5.768;2024-01-30T10:13:55;102673.09;;;11.07;87.37
81812;BME280;71243;51.848;5.768;2024-01-30T10:16:20;102671.81;;;11.13;87.22
81812;BME280;71243;51.848;5.768;2024-01-30T10:18:46;102680.78;;;11.23;86.98
81812;BME280;71243;51.848;5.768;2024-01-30T10:21:11;102686.09;;;11.23;86.92
81812;BME280;71243;51.848;5.768;2024-01-30T10:23:39;102684.50;;;11.20;87.42
81812;BME280;71243;51.848;5.768;2024-01-30T10:26:07;102688.31;;;11.16;87.47
81812;BME280;71243;51.848;5.768;2024-01-30T10:28:33;102683.22;;;11.26;87.10
81812;BME280;71243;51.848;5.768;2024-01-30T10:30:59;102680.47;;;11.27;87.36
81812;BME280;71243;51.848;5.768;2024-01-30T10:33:26;102692.63;;;11.30;87.31
81812;BME280;71243;51.848;5.768;2024-01-30T10:35:52;102686.59;;;11.28;87.29
81812;BME280;71243;51.848;5.768;2024-01-30T10:38:19;102687.97;;;11.33;87.20
81812;BME280;71243;51.848;5.768;2024-01-30T10:40:45;102680.78;;;11.35;87.13
81812;BME280;71243;51.848;5.768;2024-01-30T10:43:13;102684.69;;;11.30;87.71
81812;BME280;71243;51.848;5.768;2024-01-30T10:45:43;102687.03;;;11.34;87.41
81812;BME280;71243;51.848;5.768;2024-01-30T10:48:11;102684.41;;;11.34;87.49
81812;BME280;71243;51.848;5.768;2024-01-30T10:50:36;102681.28;;;11.40;87.65
81812;BME280;71243;51.848;5.768;2024-01-30T10:53:03;102669.19;;;11.49;87.37
81812;BME280;71243;51.848;5.768;2024-01-30T10:55:30;102689.31;;;11.51;86.82
81812;BME280;71243;51.848;5.768;2024-01-30T10:57:56;102695.25;;;11.55;86.93
81812;BME280;71243;51.848;5.768;2024-01-30T11:00:21;102682.75;;;11.57;86.70
81812;BME280;71243;51.848;5.768;2024-01-30T11:02:46;102685.16;;;11.60;86.18
81812;BME280;71243;51.848;5.768;2024-01-30T11:05:12;102687.44;;;11.66;86.06
81812;BME280;71243;51.848;5.768;2024-01-30T11:07:39;102680.22;;;11.68;85.63
81812;BME280;71243;51.848;5.768;2024-01-30T11:10:14;102680.94;;;11.70;85.00
81812;BME280;71243;51.848;5.768;2024-01-30T11:12:42;102686.84;;;11.73;85.19
81812;BME280;71243;51.848;5.768;2024-01-30T11:15:12;102681.25;;;11.78;84.50
81812;BME280;71243;51.848;5.768;2024-01-30T11:20:29;102684.91;;;11.88;83.27
81812;BME280;71243;51.848;5.768;2024-01-30T11:22:56;102682.13;;;11.89;83.17
81812;BME280;71243;51.848;5.768;2024-01-30T11:25:22;102691.69;;;11.92;82.61
81812;BME280;71243;51.848;5.768;2024-01-30T11:27:53;102684.66;;;11.91;82.31
81812;BME280;71243;51.848;5.768;2024-01-30T11:30:26;102683.63;;;11.93;81.99
81812;BME280;71243;51.848;5.768;2024-01-30T11:35:40;102680.00;;;11.94;81.25
81812;BME280;71243;51.848;5.768;2024-01-30T11:38:07;102676.16;;;11.98;80.25
81812;BME280;71243;51.848;5.768;2024-01-30T11:40:33;102674.53;;;12.08;80.42
81812;BME280;71243;51.848;5.768;2024-01-30T11:43:00;102675.56;;;12.19;80.63
81812;BME280;71243;51.848;5.768;2024-01-30T11:45:27;102668.88;;;12.37;79.57
81812;BME280;71243;51.848;5.768;2024-01-30T11:47:53;102671.56;;;12.48;79.70
81812;BME280;71243;51.848;5.768;2024-01-30T11:50:18;102672.22;;;12.62;79.49
81812;BME280;71243;51.848;5.768;2024-01-30T11:52:44;102670.66;;;12.71;78.88
81812;BME280;71243;51.848;5.768;2024-01-30T11:55:10;102668.97;;;12.81;78.73
81812;BME280;71243;51.848;5.768;2024-01-30T11:57:35;102680.72;;;12.89;77.98
81812;BME280;71243;51.848;5.768;2024-01-30T12:00:01;102684.69;;;12.95;76.58
81812;BME280;71243;51.848;5.768;2024-01-30T12:02:29;102675.41;;;12.89;75.68
81812;BME280;71243;51.848;5.768;2024-01-30T12:04:54;102675.25;;;12.80;75.39
81812;BME280;71243;51.848;5.768;2024-01-30T12:07:20;102694.78;;;12.68;75.62
81812;BME280;71243;51.848;5.768;2024-01-30T12:09:54;102688.25;;;12.61;75.54
81812;BME280;71243;51.848;5.768;2024-01-30T12:12:22;102689.69;;;12.65;76.30
81812;BME280;71243;51.848;5.768;2024-01-30T12:14:49;102692.31;;;12.54;76.23
81812;BME280;71243;51.848;5.768;2024-01-30T12:17:32;102691.22;;;12.45;76.91
81812;BME280;71243;51.848;5.768;2024-01-30T12:20:10;102693.94;;;12.44;76.99
81812;BME280;71243;51.848;5.768;2024-01-30T12:22:37;102690.91;;;12.37;76.67
81812;BME280;71243;51.848;5.768;2024-01-30T12:25:12;102699.69;;;12.27;75.13
81812;BME280;71243;51.848;5.768;2024-01-30T12:27:39;102693.53;;;12.26;74.97
81812;BME280;71243;51.848;5.768;2024-01-30T12:30:08;102697.75;;;12.29;75.36
81812;BME280;71243;51.848;5.768;2024-01-30T12:32:39;102698.69;;;12.17;73.32
81812;BME280;71243;51.848;5.768;2024-01-30T12:35:12;102715.63;;;12.14;72.00
81812;BME280;71243;51.848;5.768;2024-01-30T12:37:42;102717.72;;;12.22;71.69
81812;BME280;71243;51.848;5.768;2024-01-30T12:40:08;102709.38;;;12.15;71.81
81812;BME280;71243;51.848;5.768;2024-01-30T12:42:33;102716.38;;;12.16;71.52
81812;BME280;71243;51.848;5.768;2024-01-30T12:44:59;102729.50;;;12.18;72.36
81812;BME280;71243;51.848;5.768;2024-01-30T12:47:24;102733.13;;;12.17;73.81
81812;BME280;71243;51.848;5.768;2024-01-30T12:49:50;102732.63;;;12.11;76.20
81812;BME280;71243;51.848;5.768;2024-01-30T12:52:16;102730.09;;;12.10;77.20
81812;BME280;71243;51.848;5.768;2024-01-30T12:54:44;102732.94;;;12.07;77.78
81812;BME280;71243;51.848;5.768;2024-01-30T12:57:09;102738.63;;;11.90;77.73
81812;BME280;71243;51.848;5.768;2024-01-30T12:59:35;102743.28;;;11.86;77.52